createdAt,value
2018-09-29T00:00:18.412Z,11.85
2018-09-29T00:02:47.308Z,11.84
2018-09-29T00:05:16.222Z,11.90
2018-09-29T00:07:45.154Z,11.91
2018-09-29T00:10:14.102Z,11.90
2018-09-29T00:12:43.028Z,11.95
2018-09-29T00:15:11.990Z,11.99
2018-09-29T00:17:40.927Z,12.07
2018-09-29T00:20:09.877Z,12.06
2018-09-29T00:22:38.796Z,12.10
2018-09-29T00:25:07.783Z,12.15
2018-09-29T00:27:36.767Z,12.05
2018-09-29T00:30:05.703Z,11.96
2018-09-29T00:32:34.658Z,11.85
2018-09-29T00:35:03.611Z,11.76
2018-09-29T00:37:32.651Z,11.80
2018-09-29T00:40:01.683Z,11.89
2018-09-29T00:42:30.602Z,11.85
2018-09-29T00:44:59.497Z,11.77
2018-09-29T00:47:28.459Z,11.68
2018-09-29T00:49:57.344Z,11.65
2018-09-29T00:52:27.857Z,11.63
2018-09-29T00:54:56.796Z,11.61
2018-09-29T00:57:25.748Z,11.63
2018-09-29T00:59:54.731Z,11.57
2018-09-29T01:02:23.679Z,11.67
2018-09-29T01:04:52.614Z,11.77
2018-09-29T01:07:21.474Z,11.77
2018-09-29T01:09:50.447Z,11.82
2018-09-29T01:12:19.447Z,11.73
2018-09-29T01:14:48.329Z,11.75
2018-09-29T01:17:17.240Z,11.89
2018-09-29T01:19:46.232Z,11.85
2018-09-29T01:22:15.157Z,11.82
2018-09-29T01:24:44.167Z,11.79
2018-09-29T01:27:13.095Z,11.72
2018-09-29T01:29:42.013Z,11.82
2018-09-29T01:32:11.053Z,11.93
2018-09-29T01:34:39.996Z,11.99
2018-09-29T01:37:08.893Z,11.99
2018-09-29T01:39:37.804Z,12.00
2018-09-29T01:42:06.798Z,12.00
2018-09-29T01:44:35.709Z,11.98
2018-09-29T01:47:04.656Z,12.07
2018-09-29T01:49:33.561Z,12.02
2018-09-29T01:52:02.462Z,12.04
2018-09-29T01:54:31.368Z,11.86
2018-09-29T01:57:00.530Z,11.70
2018-09-29T01:59:29.439Z,11.88
2018-09-29T02:01:58.372Z,11.90
2018-09-29T02:04:27.288Z,11.85
2018-09-29T02:06:56.209Z,11.61
2018-09-29T02:09:25.144Z,11.79
2018-09-29T02:11:54.040Z,11.88
2018-09-29T02:14:22.947Z,11.82
2018-09-29T02:16:51.837Z,11.71
2018-09-29T02:19:20.773Z,11.76
2018-09-29T02:21:49.939Z,11.77
2018-09-29T02:24:18.847Z,11.76
2018-09-29T02:26:47.757Z,11.76
2018-09-29T02:29:16.701Z,11.76
2018-09-29T02:31:45.592Z,11.87
2018-09-29T02:34:14.543Z,11.77
2018-09-29T02:36:43.598Z,11.85
2018-09-29T02:39:13.284Z,11.92
2018-09-29T02:41:42.172Z,11.83
2018-09-29T02:44:11.087Z,11.70
2018-09-29T02:46:40.024Z,11.70
2018-09-29T02:49:08.933Z,11.79
2018-09-29T02:51:37.828Z,11.76
2018-09-29T02:54:06.803Z,11.67
2018-09-29T02:56:35.720Z,11.74
2018-09-29T02:59:04.866Z,11.61
2018-09-29T03:01:33.741Z,11.45
2018-09-29T03:04:02.669Z,11.56
2018-09-29T03:06:31.551Z,11.49
2018-09-29T03:09:00.485Z,11.43
2018-09-29T03:11:29.416Z,11.15
2018-09-29T03:13:58.357Z,11.01
2018-09-29T03:16:27.245Z,11.04
2018-09-29T03:18:56.164Z,11.22
2018-09-29T03:21:25.059Z,11.36
2018-09-29T03:23:53.994Z,11.40
2018-09-29T03:26:22.898Z,11.30
2018-09-29T03:28:51.820Z,11.40
2018-09-29T03:31:21.054Z,11.35
2018-09-29T03:33:49.932Z,11.21
2018-09-29T03:36:18.854Z,11.11
2018-09-29T03:38:47.802Z,11.23
2018-09-29T03:41:16.900Z,11.36
2018-09-29T03:43:45.896Z,11.37
2018-09-29T03:46:14.940Z,11.14
2018-09-29T03:48:43.842Z,11.20
2018-09-29T03:51:12.840Z,11.25
2018-09-29T03:53:41.836Z,11.10
2018-09-29T03:56:10.754Z,10.95
2018-09-29T03:58:39.640Z,10.85
2018-09-29T04:01:08.606Z,10.84
2018-09-29T04:03:37.540Z,10.82
2018-09-29T04:06:06.506Z,10.82
2018-09-29T04:08:35.417Z,10.82
2018-09-29T04:11:04.477Z,10.82
2018-09-29T04:13:33.455Z,10.71
2018-09-29T04:16:02.396Z,10.69
2018-09-29T04:18:31.372Z,10.69
2018-09-29T04:21:00.528Z,10.78
2018-09-29T04:23:29.484Z,10.79
2018-09-29T04:25:58.441Z,10.77
2018-09-29T04:28:27.337Z,10.59
2018-09-29T04:30:56.337Z,10.59
2018-09-29T04:33:25.275Z,10.79
2018-09-29T04:35:54.195Z,10.92
2018-09-29T04:38:23.119Z,10.97
2018-09-29T04:40:52.080Z,11.04
2018-09-29T04:43:21.034Z,10.99
2018-09-29T04:45:49.961Z,11.10
2018-09-29T04:48:18.880Z,11.07
2018-09-29T04:50:47.841Z,11.14
2018-09-29T04:53:16.807Z,11.18
2018-09-29T04:55:46.827Z,11.21
2018-09-29T04:58:16.117Z,11.13
2018-09-29T05:00:45.045Z,11.25
2018-09-29T05:03:14.000Z,11.19
2018-09-29T05:05:42.964Z,10.78
2018-09-29T05:08:12.303Z,10.63
2018-09-29T05:10:41.240Z,10.66
2018-09-29T05:13:10.159Z,10.58
2018-09-29T05:15:39.072Z,10.56
2018-09-29T05:18:08.033Z,10.57
2018-09-29T05:20:37.048Z,10.57
2018-09-29T05:23:06.235Z,10.55
2018-09-29T05:25:35.203Z,10.59
2018-09-29T05:28:04.162Z,10.59
2018-09-29T05:30:33.044Z,10.64
2018-09-29T05:33:02.103Z,10.66
2018-09-29T05:35:31.029Z,10.72
2018-09-29T05:37:59.962Z,10.73
2018-09-29T05:40:28.966Z,10.77
2018-09-29T05:42:57.884Z,10.75
2018-09-29T05:45:26.806Z,10.75
2018-09-29T05:47:55.745Z,10.82
2018-09-29T05:50:24.679Z,10.76
2018-09-29T05:52:54.585Z,10.78
2018-09-29T05:55:23.480Z,10.91
2018-09-29T05:57:52.434Z,11.06
2018-09-29T06:00:21.400Z,10.98
2018-09-29T06:02:50.260Z,10.97
2018-09-29T06:05:19.254Z,11.03
2018-09-29T06:07:48.252Z,10.99
2018-09-29T06:10:17.221Z,11.16
2018-09-29T06:12:46.253Z,11.13
2018-09-29T06:15:15.201Z,11.11
2018-09-29T06:17:44.127Z,11.30
2018-09-29T06:20:13.090Z,11.44
2018-09-29T06:22:42.058Z,11.61
2018-09-29T06:25:10.981Z,11.75
2018-09-29T06:27:40.050Z,12.00
2018-09-29T06:30:08.969Z,12.09
2018-09-29T06:32:37.923Z,12.48
2018-09-29T06:35:06.905Z,12.18
2018-09-29T06:37:35.915Z,12.24
2018-09-29T06:40:05.049Z,12.54
2018-09-29T06:42:33.971Z,12.43
2018-09-29T06:45:02.987Z,12.58
2018-09-29T06:47:32.047Z,12.69
2018-09-29T06:50:01.107Z,12.70
2018-09-29T06:52:30.072Z,12.98
2018-09-29T06:54:58.997Z,13.06
2018-09-29T06:57:27.909Z,12.97
2018-09-29T06:59:56.997Z,12.86
2018-09-29T07:02:25.998Z,13.08
2018-09-29T07:04:54.979Z,13.26
2018-09-29T07:07:23.979Z,13.63
2018-09-29T07:09:52.898Z,13.51
2018-09-29T07:12:21.831Z,13.68
2018-09-29T07:14:50.845Z,13.75
2018-09-29T07:17:20.061Z,13.56
2018-09-29T07:19:48.975Z,13.80
2018-09-29T07:22:18.027Z,13.74
2018-09-29T07:24:47.059Z,13.80
2018-09-29T07:27:16.006Z,13.99
2018-09-29T07:29:44.970Z,14.16
2018-09-29T07:32:13.885Z,14.19
2018-09-29T07:34:42.966Z,14.38
2018-09-29T07:37:11.918Z,14.27
2018-09-29T07:39:40.935Z,14.27
2018-09-29T07:42:09.916Z,14.18
2018-09-29T07:44:38.799Z,14.18
2018-09-29T07:47:07.735Z,14.33
2018-09-29T07:49:36.817Z,14.40
2018-09-29T07:52:08.859Z,14.57
2018-09-29T07:54:37.903Z,14.46
2018-09-29T07:57:06.852Z,14.66
2018-09-29T07:59:35.836Z,14.68
2018-09-29T08:02:04.761Z,14.58
2018-09-29T08:04:33.724Z,14.58
2018-09-29T08:07:02.817Z,14.88
2018-09-29T08:09:31.781Z,15.03
2018-09-29T08:12:00.658Z,14.70
2018-09-29T08:14:29.565Z,14.98
2018-09-29T08:16:59.516Z,14.89
2018-09-29T08:19:29.511Z,14.84
2018-09-29T08:21:58.448Z,14.91
2018-09-29T08:24:27.400Z,14.70
2018-09-29T08:26:56.244Z,14.78
2018-09-29T08:29:25.213Z,14.78
2018-09-29T08:31:54.173Z,14.62
2018-09-29T08:34:23.168Z,14.67
2018-09-29T08:36:52.219Z,14.50
2018-09-29T08:39:21.192Z,14.71
2018-09-29T08:41:50.133Z,14.57
2018-09-29T08:44:19.035Z,14.90
2018-09-29T08:46:47.952Z,14.78
2018-09-29T08:49:16.884Z,14.58
2018-09-29T08:51:45.786Z,14.60
2018-09-29T08:54:14.809Z,14.42
2018-09-29T08:56:43.703Z,14.53
2018-09-29T08:59:12.719Z,14.19
2018-09-29T09:01:41.663Z,14.51
2018-09-29T09:04:10.590Z,14.57
2018-09-29T09:06:39.644Z,14.29
2018-09-29T09:09:09.973Z,13.97
2018-09-29T09:11:39.065Z,14.24
2018-09-29T09:14:08.269Z,13.96
2018-09-29T09:16:37.279Z,14.17
2018-09-29T09:19:06.357Z,14.12
2018-09-29T09:21:35.329Z,13.95
2018-09-29T09:24:04.275Z,14.06
2018-09-29T09:26:33.192Z,13.79
2018-09-29T09:29:02.171Z,13.70
2018-09-29T09:31:31.107Z,13.83
2018-09-29T09:34:00.012Z,13.86
2018-09-29T09:36:28.981Z,13.83
2018-09-29T09:38:57.865Z,13.85
2018-09-29T09:41:26.879Z,13.95
2018-09-29T09:43:55.873Z,13.84
2018-09-29T09:46:24.821Z,13.78
2018-09-29T09:48:53.741Z,13.90
2018-09-29T09:51:22.707Z,13.91
2018-09-29T09:53:51.644Z,13.75
2018-09-29T09:56:20.643Z,13.87
2018-09-29T09:58:49.559Z,13.85
2018-09-29T10:01:23.808Z,13.95
2018-09-29T10:03:52.805Z,14.03
2018-09-29T10:06:21.755Z,13.99
2018-09-29T10:08:50.769Z,13.96
2018-09-29T10:11:19.721Z,13.90
2018-09-29T10:13:51.639Z,14.03
2018-09-29T10:16:22.581Z,14.04
2018-09-29T10:18:51.504Z,14.01
2018-09-29T10:21:20.461Z,13.91
2018-09-29T10:23:49.459Z,13.97
2018-09-29T10:26:18.424Z,13.91
2018-09-29T10:28:47.363Z,13.96
2018-09-29T10:31:16.358Z,14.02
2018-09-29T10:33:45.533Z,13.94
2018-09-29T10:36:14.517Z,14.00
2018-09-29T10:38:43.517Z,13.99
2018-09-29T10:41:12.461Z,14.02
2018-09-29T10:43:41.367Z,14.07
2018-09-29T10:46:10.350Z,13.97
2018-09-29T10:48:39.295Z,13.99
2018-09-29T10:51:08.234Z,13.94
2018-09-29T10:53:37.377Z,13.93
2018-09-29T10:56:06.329Z,14.04
2018-09-29T10:58:35.279Z,14.13
2018-09-29T11:01:04.218Z,14.07
2018-09-29T11:03:33.205Z,14.12
2018-09-29T11:06:02.129Z,14.14
2018-09-29T11:08:31.061Z,14.11
2018-09-29T11:11:00.014Z,14.03
2018-09-29T11:13:28.999Z,13.98
2018-09-29T11:15:57.925Z,14.02
2018-09-29T11:18:34.765Z,14.16
2018-09-29T11:21:03.750Z,14.21
2018-09-29T11:23:32.696Z,14.16
2018-09-29T11:26:01.659Z,14.22
2018-09-29T11:28:30.577Z,14.33
2018-09-29T11:30:59.491Z,14.40
2018-09-29T11:33:28.429Z,14.41
2018-09-29T11:35:57.350Z,14.43
2018-09-29T11:38:26.317Z,14.55
2018-09-29T11:40:55.269Z,14.59
2018-09-29T11:43:24.183Z,14.50
2018-09-29T11:45:53.159Z,14.57
2018-09-29T11:48:27.219Z,14.52
2018-09-29T11:50:56.161Z,14.43
2018-09-29T11:53:25.061Z,14.57
2018-09-29T11:55:53.989Z,14.46
2018-09-29T11:58:22.963Z,14.35
2018-09-29T12:00:52.006Z,14.37
2018-09-29T12:03:20.947Z,14.39
2018-09-29T12:05:49.957Z,14.42
2018-09-29T12:08:18.832Z,14.49
2018-09-29T12:10:47.763Z,14.47
2018-09-29T12:13:16.669Z,14.45
2018-09-29T12:15:45.709Z,14.47
2018-09-29T12:18:14.608Z,14.49
2018-09-29T12:20:43.547Z,14.34
2018-09-29T12:23:12.452Z,14.33
2018-09-29T12:25:41.387Z,14.39
2018-09-29T12:28:18.504Z,14.45
2018-09-29T12:30:47.490Z,14.41
2018-09-29T12:33:18.766Z,14.38
2018-09-29T12:35:47.700Z,14.51
2018-09-29T12:38:16.670Z,14.43
2018-09-29T12:40:48.799Z,14.53
2018-09-29T12:43:17.711Z,14.52
2018-09-29T12:45:46.664Z,14.56
2018-09-29T12:48:15.647Z,14.61
2018-09-29T12:50:44.659Z,14.62
2018-09-29T12:53:13.578Z,14.60
2018-09-29T12:55:42.498Z,14.66
2018-09-29T12:58:11.439Z,14.62
2018-09-29T13:00:40.456Z,14.68
2018-09-29T13:03:09.359Z,14.63
2018-09-29T13:05:38.413Z,14.64
2018-09-29T13:08:07.328Z,14.71
2018-09-29T13:10:36.344Z,14.60
2018-09-29T13:13:05.408Z,14.60
2018-09-29T13:15:34.345Z,14.64
2018-09-29T13:18:03.273Z,14.65
2018-09-29T13:20:32.232Z,14.67
2018-09-29T13:23:01.240Z,14.75
2018-09-29T13:25:30.129Z,14.77
2018-09-29T13:27:59.035Z,14.89
2018-09-29T13:30:28.088Z,14.84
2018-09-29T13:33:06.869Z,14.75
2018-09-29T13:35:35.831Z,14.79
2018-09-29T13:38:04.844Z,14.86
2018-09-29T13:40:33.767Z,14.85
2018-09-29T13:43:02.681Z,14.84
2018-09-29T13:45:31.594Z,14.90
2018-09-29T13:48:00.529Z,14.89
2018-09-29T13:50:29.466Z,14.97
2018-09-29T13:52:58.411Z,14.81
2018-09-29T13:55:27.342Z,14.74
2018-09-29T13:58:00.593Z,14.79
2018-09-29T14:00:29.567Z,14.92
2018-09-29T14:02:58.539Z,14.98
2018-09-29T14:05:28.435Z,14.99
2018-09-29T14:07:57.356Z,15.00
2018-09-29T14:10:27.451Z,15.04
2018-09-29T14:12:56.389Z,15.06
2018-09-29T14:15:25.333Z,15.08
2018-09-29T14:17:54.314Z,15.14
2018-09-29T14:20:23.237Z,15.12
2018-09-29T14:22:52.147Z,15.01
2018-09-29T14:25:21.195Z,15.02
2018-09-29T14:27:51.185Z,15.04
2018-09-29T14:30:25.989Z,14.96
2018-09-29T14:32:54.885Z,14.93
2018-09-29T14:38:28.730Z,15.01
2018-09-29T14:40:57.649Z,14.92
2018-09-29T14:43:26.570Z,14.89
2018-09-29T14:45:55.548Z,14.84
2018-09-29T14:48:24.473Z,14.90
2018-09-29T14:50:53.414Z,14.97
2018-09-29T14:53:22.355Z,15.05
2018-09-29T14:55:51.380Z,15.11
2018-09-29T14:58:21.358Z,15.17
2018-09-29T15:00:50.289Z,15.02
2018-09-29T15:03:23.007Z,14.92
2018-09-29T15:05:52.012Z,14.96
2018-09-29T15:08:20.979Z,14.98
2018-09-29T15:10:52.089Z,14.98
2018-09-29T15:13:21.923Z,14.97
2018-09-29T15:15:51.227Z,14.98
2018-09-29T15:18:20.191Z,14.95
2018-09-29T15:20:49.594Z,14.96
2018-09-29T15:23:19.695Z,14.90
2018-09-29T15:25:48.731Z,14.93
2018-09-29T15:28:17.643Z,14.89
2018-09-29T15:30:46.572Z,14.91
2018-09-29T15:33:15.543Z,14.94
2018-09-29T15:35:44.501Z,15.01
2018-09-29T15:38:15.485Z,14.89
2018-09-29T15:40:44.401Z,14.92
2018-09-29T15:43:13.366Z,14.92
2018-09-29T15:45:42.390Z,14.89
2018-09-29T15:48:12.411Z,14.95
2018-09-29T15:50:41.335Z,14.93
2018-09-29T15:53:10.246Z,14.96
2018-09-29T15:55:39.249Z,14.91
2018-09-29T15:58:08.139Z,14.90
2018-09-29T16:00:38.097Z,14.89
2018-09-29T16:03:07.008Z,14.87
2018-09-29T16:05:35.929Z,14.87
2018-09-29T16:08:04.864Z,14.84
2018-09-29T16:10:33.842Z,14.87
2018-09-29T16:13:02.814Z,14.88
2018-09-29T16:15:31.704Z,14.87
2018-09-29T16:18:01.359Z,14.86
2018-09-29T16:20:30.392Z,14.88
2018-09-29T16:22:59.343Z,14.88
2018-09-29T16:25:28.220Z,14.80
2018-09-29T16:27:57.200Z,14.85
2018-09-29T16:30:26.139Z,14.86
2018-09-29T16:32:55.077Z,14.84
2018-09-29T16:35:23.979Z,14.76
2018-09-29T16:37:52.879Z,14.73
2018-09-29T16:40:21.888Z,14.72
2018-09-29T16:42:50.884Z,14.73
2018-09-29T16:45:19.786Z,14.71
2018-09-29T16:47:48.733Z,14.71
2018-09-29T16:50:17.713Z,14.64
2018-09-29T16:52:46.628Z,14.69
2018-09-29T16:55:15.627Z,14.69
2018-09-29T16:57:44.643Z,14.68
2018-09-29T17:00:13.578Z,14.68
2018-09-29T17:02:42.498Z,14.64
2018-09-29T17:05:11.531Z,14.68
2018-09-29T17:07:40.463Z,14.63
2018-09-29T17:10:09.575Z,14.59
2018-09-29T17:12:38.511Z,14.58
2018-09-29T17:15:07.532Z,14.57
2018-09-29T17:17:36.617Z,14.54
2018-09-29T17:20:11.963Z,14.51
2018-09-29T17:22:46.683Z,14.49
2018-09-29T17:25:15.653Z,14.52
2018-09-29T17:27:44.625Z,14.48
2018-09-29T17:30:13.543Z,14.46
2018-09-29T17:32:42.458Z,14.48
2018-09-29T17:35:11.492Z,14.32
2018-09-29T17:37:40.393Z,14.38
2018-09-29T17:40:09.345Z,14.35
2018-09-29T17:42:39.311Z,14.33
2018-09-29T17:45:09.165Z,14.31
2018-09-29T17:47:38.163Z,14.33
2018-09-29T17:50:08.393Z,14.35
2018-09-29T17:52:37.488Z,14.30
2018-09-29T17:55:06.425Z,14.27
2018-09-29T17:57:35.309Z,14.36
2018-09-29T18:00:04.401Z,14.35
2018-09-29T18:02:33.323Z,14.36
2018-09-29T18:05:02.285Z,14.27
2018-09-29T18:07:31.315Z,14.30
2018-09-29T18:10:00.229Z,14.31
2018-09-29T18:12:34.792Z,14.24
2018-09-29T18:15:04.065Z,14.22
2018-09-29T18:17:32.947Z,14.16
2018-09-29T18:20:01.846Z,14.16
2018-09-29T18:22:30.740Z,14.15
2018-09-29T18:24:59.620Z,14.18
2018-09-29T18:27:28.564Z,14.20
2018-09-29T18:32:38.971Z,14.20
2018-09-29T18:35:07.933Z,14.19
2018-09-29T18:37:37.013Z,14.22
2018-09-29T18:40:05.958Z,14.19
2018-09-29T18:42:34.944Z,14.15
2018-09-29T18:45:03.918Z,14.10
2018-09-29T18:47:32.923Z,14.13
2018-09-29T18:50:02.077Z,14.04
2018-09-29T18:52:30.984Z,13.97
2018-09-29T18:54:59.995Z,14.01
2018-09-29T18:57:31.796Z,14.04
2018-09-29T19:00:00.857Z,14.02
2018-09-29T19:02:31.433Z,13.96
2018-09-29T19:05:01.823Z,14.01
2018-09-29T19:07:30.923Z,13.97
2018-09-29T19:10:00.903Z,13.94
2018-09-29T19:12:29.845Z,13.96
2018-09-29T19:14:58.793Z,13.98
2018-09-29T19:17:28.019Z,13.96
2018-09-29T19:19:56.944Z,13.91
2018-09-29T19:22:26.020Z,13.94
2018-09-29T19:24:54.976Z,13.89
2018-09-29T19:27:24.067Z,13.90
2018-09-29T19:29:56.350Z,13.95
2018-09-29T19:32:25.319Z,13.82
2018-09-29T19:34:54.354Z,13.80
2018-09-29T19:37:23.249Z,13.87
2018-09-29T19:39:52.241Z,13.69
2018-09-29T19:42:21.217Z,13.78
2018-09-29T19:44:50.170Z,13.73
2018-09-29T19:47:19.226Z,13.77
2018-09-29T19:49:48.199Z,13.80
2018-09-29T19:52:17.209Z,13.74
2018-09-29T19:54:46.187Z,13.55
2018-09-29T19:57:15.209Z,13.64
2018-09-29T19:59:44.189Z,13.65
2018-09-29T20:02:13.126Z,13.66
2018-09-29T20:04:43.133Z,13.72
2018-09-29T20:07:14.627Z,13.57
2018-09-29T20:09:43.649Z,13.71
2018-09-29T20:12:13.659Z,13.69
2018-09-29T20:14:42.627Z,13.70
2018-09-29T20:17:14.423Z,13.73
2018-09-29T20:19:43.545Z,13.67
2018-09-29T20:22:34.957Z,13.57
2018-09-29T20:25:03.879Z,13.40
2018-09-29T20:27:32.791Z,13.54
2018-09-29T20:30:02.139Z,13.56
2018-09-29T20:32:31.198Z,13.54
2018-09-29T20:35:00.116Z,13.55
2018-09-29T20:37:29.040Z,13.50
2018-09-29T20:39:57.986Z,13.51
2018-09-29T20:42:26.977Z,13.50
2018-09-29T20:44:55.875Z,13.51
2018-09-29T20:47:24.887Z,13.48
2018-09-29T20:49:57.439Z,13.54
2018-09-29T20:52:26.367Z,13.58
2018-09-29T20:54:55.402Z,13.60
2018-09-29T20:57:27.583Z,13.59
2018-09-29T20:59:56.554Z,13.55
2018-09-29T21:02:42.916Z,13.36
2018-09-29T21:05:12.192Z,13.42
2018-09-29T21:07:41.148Z,13.37
2018-09-29T21:10:10.224Z,13.23
2018-09-29T21:12:39.193Z,13.20
2018-09-29T21:15:08.188Z,13.20
2018-09-29T21:17:40.389Z,13.30
2018-09-29T21:20:09.356Z,13.13
2018-09-29T21:22:38.383Z,13.26
2018-09-29T21:25:07.283Z,13.17
2018-09-29T21:27:36.369Z,13.17
2018-09-29T21:30:05.301Z,13.20
2018-09-29T21:32:34.333Z,13.20
2018-09-29T21:35:03.344Z,13.17
2018-09-29T21:37:32.252Z,13.20
2018-09-29T21:40:01.219Z,13.15
2018-09-29T21:42:30.255Z,12.97
2018-09-29T21:44:59.141Z,12.93
2018-09-29T21:47:28.059Z,12.90
2018-09-29T21:49:57.000Z,13.02
2018-09-29T21:52:26.207Z,12.97
2018-09-29T21:54:54.981Z,12.88
2018-09-29T21:57:23.938Z,12.86
2018-09-29T21:59:52.847Z,12.93
2018-09-29T22:02:21.891Z,12.72
2018-09-29T22:04:50.829Z,12.70
2018-09-29T22:07:19.882Z,12.75
2018-09-29T22:09:48.867Z,12.84
2018-09-29T22:12:17.895Z,12.90
2018-09-29T22:14:46.856Z,12.89
2018-09-29T22:17:16.971Z,12.86
2018-09-29T22:19:45.938Z,12.88
2018-09-29T22:22:14.866Z,12.86
2018-09-29T22:24:43.915Z,12.83
2018-09-29T22:27:12.971Z,12.88
2018-09-29T22:29:42.017Z,12.70
2018-09-29T22:32:10.993Z,12.77
2018-09-29T22:34:40.097Z,12.81
2018-09-29T22:37:09.112Z,12.87
2018-09-29T22:39:38.011Z,12.87
2018-09-29T22:42:07.066Z,12.85
2018-09-29T22:44:36.329Z,12.64
2018-09-29T22:47:05.441Z,12.61
2018-09-29T22:49:34.413Z,12.68
2018-09-29T22:52:04.426Z,12.67
2018-09-29T22:54:33.359Z,12.71
2018-09-29T22:57:02.304Z,12.49
2018-09-29T22:59:34.216Z,12.37
2018-09-29T23:02:03.139Z,12.51
2018-09-29T23:04:32.088Z,12.46
2018-09-29T23:07:01.040Z,12.50
2018-09-29T23:09:30.029Z,12.46
2018-09-29T23:11:58.992Z,12.61
2018-09-29T23:14:28.054Z,12.66
2018-09-29T23:16:57.028Z,12.71
2018-09-29T23:19:25.996Z,12.64
2018-09-29T23:21:54.877Z,12.36
2018-09-29T23:24:23.832Z,12.30
2018-09-29T23:26:52.746Z,12.21
2018-09-29T23:29:21.628Z,12.17
2018-09-29T23:31:50.548Z,12.14
2018-09-29T23:34:19.485Z,12.19
2018-09-29T23:36:50.560Z,12.35
2018-09-29T23:39:19.508Z,12.36
2018-09-29T23:41:48.444Z,12.48
2018-09-29T23:44:17.372Z,12.53
2018-09-29T23:46:46.292Z,12.62
2018-09-29T23:49:15.297Z,12.45
2018-09-29T23:51:44.176Z,12.36
2018-09-29T23:54:13.114Z,12.36
2018-09-29T23:56:42.044Z,12.49
2018-09-29T23:59:11.014Z,12.62
